sensor_id;sensor_type;location;lat;lon;timestamp;temperature;humidity
2763;DHT22;1389;51.490;7.338;2023-01-23T00:00:57;3.00;97.70
2763;DHT22;1389;51.490;7.338;2023-01-23T00:03:23;3.00;97.70
2763;DHT22;1389;51.490;7.338;2023-01-23T00:05:58;3.00;97.70
2763;DHT22;1389;51.490;7.338;2023-01-23T00:08:25;3.00;97.80
2763;DHT22;1389;51.490;7.338;2023-01-23T00:10:51;3.00;97.80
2763;DHT22;1389;51.490;7.338;2023-01-23T00:13:17;3.00;97.80
2763;DHT22;1389;51.490;7.338;2023-01-23T00:15:43;3.00;97.80
2763;DHT22;1389;51.490;7.338;2023-01-23T00:18:09;3.00;97.80
2763;DHT22;1389;51.490;7.338;2023-01-23T00:20:39;3.00;97.50
2763;DHT22;1389;51.490;7.338;2023-01-23T00:23:06;3.00;97.50
2763;DHT22;1389;51.490;7.338;2023-01-23T00:25:34;3.00;97.70
2763;DHT22;1389;51.490;7.338;2023-01-23T00:28:01;3.00;97.70
2763;DHT22;1389;51.490;7.338;2023-01-23T00:30:27;3.00;97.60
2763;DHT22;1389;51.490;7.338;2023-01-23T00:32:53;3.00;97.60
2763;DHT22;1389;51.490;7.338;2023-01-23T00:35:20;3.00;97.60
2763;DHT22;1389;51.490;7.338;2023-01-23T00:37:47;3.00;97.50
2763;DHT22;1389;51.490;7.338;2023-01-23T00:40:13;3.00;97.40
2763;DHT22;1389;51.490;7.338;2023-01-23T00:42:39;3.00;97.50
2763;DHT22;1389;51.490;7.338;2023-01-23T00:45:05;3.00;97.50
2763;DHT22;1389;51.490;7.338;2023-01-23T00:47:31;3.00;97.60
2763;DHT22;1389;51.490;7.338;2023-01-23T00:49:57;3.00;97.20
2763;DHT22;1389;51.490;7.338;2023-01-23T00:52:25;3.00;97.20
2763;DHT22;1389;51.490;7.338;2023-01-23T00:54:52;3.00;97.20
2763;DHT22;1389;51.490;7.338;2023-01-23T00:57:18;3.00;97.30
2763;DHT22;1389;51.490;7.338;2023-01-23T00:59:44;3.00;97.30
2763;DHT22;1389;51.490;7.338;2023-01-23T01:02:10;3.00;97.20
2763;DHT22;1389;51.490;7.338;2023-01-23T01:04:36;3.00;97.30
2763;DHT22;1389;51.490;7.338;2023-01-23T01:07:02;3.00;97.20
2763;DHT22;1389;51.490;7.338;2023-01-23T01:09:28;3.00;97.30
2763;DHT22;1389;51.490;7.338;2023-01-23T01:11:55;3.00;97.30
2763;DHT22;1389;51.490;7.338;2023-01-23T01:14:21;3.00;97.30
2763;DHT22;1389;51.490;7.338;2023-01-23T01:16:47;3.00;97.20
2763;DHT22;1389;51.490;7.338;2023-01-23T01:19:15;3.00;97.30
2763;DHT22;1389;51.490;7.338;2023-01-23T01:21:42;3.00;97.30
2763;DHT22;1389;51.490;7.338;2023-01-23T01:24:09;3.00;97.30
2763;DHT22;1389;51.490;7.338;2023-01-23T01:26:35;3.00;97.20
2763;DHT22;1389;51.490;7.338;2023-01-23T01:29:01;3.00;97.20
2763;DHT22;1389;51.490;7.338;2023-01-23T01:31:28;3.00;97.20
2763;DHT22;1389;51.490;7.338;2023-01-23T01:33:54;3.00;97.30
2763;DHT22;1389;51.490;7.338;2023-01-23T01:36:21;3.10;97.20
2763;DHT22;1389;51.490;7.338;2023-01-23T01:38:49;3.10;97.20
2763;DHT22;1389;51.490;7.338;2023-01-23T01:41:16;3.00;97.10
2763;DHT22;1389;51.490;7.338;2023-01-23T01:43:43;3.00;96.90
2763;DHT22;1389;51.490;7.338;2023-01-23T01:48:48;3.00;96.90
2763;DHT22;1389;51.490;7.338;2023-01-23T01:53:56;3.00;97.10
2763;DHT22;1389;51.490;7.338;2023-01-23T01:56:24;3.00;97.10
2763;DHT22;1389;51.490;7.338;2023-01-23T01:58:52;3.00;97.10
2763;DHT22;1389;51.490;7.338;2023-01-23T02:01:19;3.00;97.20
2763;DHT22;1389;51.490;7.338;2023-01-23T02:03:46;3.00;97.30
2763;DHT22;1389;51.490;7.338;2023-01-23T02:06:13;3.00;97.20
2763;DHT22;1389;51.490;7.338;2023-01-23T02:08:59;3.00;97.20
2763;DHT22;1389;51.490;7.338;2023-01-23T02:11:27;3.00;97.20
2763;DHT22;1389;51.490;7.338;2023-01-23T02:13:53;3.00;97.20
2763;DHT22;1389;51.490;7.338;2023-01-23T02:16:25;3.00;97.20
2763;DHT22;1389;51.490;7.338;2023-01-23T02:18:56;3.00;97.20
2763;DHT22;1389;51.490;7.338;2023-01-23T02:21:23;3.00;97.30
2763;DHT22;1389;51.490;7.338;2023-01-23T02:26:42;3.00;97.30
2763;DHT22;1389;51.490;7.338;2023-01-23T02:29:10;3.00;97.30
2763;DHT22;1389;51.490;7.338;2023-01-23T02:31:36;3.00;97.20
2763;DHT22;1389;51.490;7.338;2023-01-23T02:34:03;3.00;97.30
2763;DHT22;1389;51.490;7.338;2023-01-23T02:36:33;3.00;97.10
2763;DHT22;1389;51.490;7.338;2023-01-23T02:41:37;3.00;97.20
2763;DHT22;1389;51.490;7.338;2023-01-23T02:46:55;3.00;97.30
2763;DHT22;1389;51.490;7.338;2023-01-23T02:49:22;3.00;97.00
2763;DHT22;1389;51.490;7.338;2023-01-23T02:51:49;3.00;97.00
2763;DHT22;1389;51.490;7.338;2023-01-23T02:54:16;3.00;97.20
2763;DHT22;1389;51.490;7.338;2023-01-23T02:56:43;3.00;97.10
2763;DHT22;1389;51.490;7.338;2023-01-23T02:59:09;3.00;96.90
2763;DHT22;1389;51.490;7.338;2023-01-23T03:01:54;3.00;97.10
2763;DHT22;1389;51.490;7.338;2023-01-23T03:04:20;3.00;97.10
2763;DHT22;1389;51.490;7.338;2023-01-23T03:06:47;3.00;97.20
2763;DHT22;1389;51.490;7.338;2023-01-23T03:09:14;3.00;97.20
2763;DHT22;1389;51.490;7.338;2023-01-23T03:11:43;3.00;97.30
2763;DHT22;1389;51.490;7.338;2023-01-23T03:14:12;3.00;97.30
2763;DHT22;1389;51.490;7.338;2023-01-23T03:16:39;3.00;97.40
2763;DHT22;1389;51.490;7.338;2023-01-23T03:19:07;3.10;97.30
2763;DHT22;1389;51.490;7.338;2023-01-23T03:21:38;3.10;97.20
2763;DHT22;1389;51.490;7.338;2023-01-23T03:24:07;3.10;97.30
2763;DHT22;1389;51.490;7.338;2023-01-23T03:26:33;3.10;97.40
2763;DHT22;1389;51.490;7.338;2023-01-23T03:28:59;3.10;97.30
2763;DHT22;1389;51.490;7.338;2023-01-23T03:31:44;3.00;97.10
2763;DHT22;1389;51.490;7.338;2023-01-23T03:34:10;3.00;97.30
2763;DHT22;1389;51.490;7.338;2023-01-23T03:36:36;3.00;97.20
2763;DHT22;1389;51.490;7.338;2023-01-23T03:39:05;3.00;97.10
2763;DHT22;1389;51.490;7.338;2023-01-23T03:41:50;3.00;97.10
2763;DHT22;1389;51.490;7.338;2023-01-23T03:44:17;3.00;97.10
2763;DHT22;1389;51.490;7.338;2023-01-23T03:46:45;3.00;97.20
2763;DHT22;1389;51.490;7.338;2023-01-23T03:49:11;3.00;97.20
2763;DHT22;1389;51.490;7.338;2023-01-23T03:51:37;3.00;97.20
2763;DHT22;1389;51.490;7.338;2023-01-23T03:54:03;3.00;97.40
2763;DHT22;1389;51.490;7.338;2023-01-23T03:56:29;3.00;97.40
2763;DHT22;1389;51.490;7.338;2023-01-23T03:58:55;3.10;97.50
2763;DHT22;1389;51.490;7.338;2023-01-23T04:01:22;3.10;97.50
2763;DHT22;1389;51.490;7.338;2023-01-23T04:03:49;3.10;97.40
2763;DHT22;1389;51.490;7.338;2023-01-23T04:06:16;3.10;97.20
2763;DHT22;1389;51.490;7.338;2023-01-23T04:08:42;3.10;97.30
2763;DHT22;1389;51.490;7.338;2023-01-23T04:11:09;3.10;97.30
2763;DHT22;1389;51.490;7.338;2023-01-23T04:13:36;3.10;97.10
2763;DHT22;1389;51.490;7.338;2023-01-23T04:16:03;3.10;97.10
2763;DHT22;1389;51.490;7.338;2023-01-23T04:18:30;3.10;97.10
2763;DHT22;1389;51.490;7.338;2023-01-23T04:20:56;3.10;97.10
2763;DHT22;1389;51.490;7.338;2023-01-23T04:23:23;3.10;97.20
2763;DHT22;1389;51.490;7.338;2023-01-23T04:25:50;3.20;96.90
2763;DHT22;1389;51.490;7.338;2023-01-23T04:28:17;3.10;97.10
2763;DHT22;1389;51.490;7.338;2023-01-23T04:30:44;3.20;97.00
2763;DHT22;1389;51.490;7.338;2023-01-23T04:33:11;3.20;96.90
2763;DHT22;1389;51.490;7.338;2023-01-23T04:38:03;3.20;97.10
2763;DHT22;1389;51.490;7.338;2023-01-23T04:40:29;3.20;96.80
2763;DHT22;1389;51.490;7.338;2023-01-23T04:42:55;3.10;96.80
2763;DHT22;1389;51.490;7.338;2023-01-23T04:45:21;3.20;96.70
2763;DHT22;1389;51.490;7.338;2023-01-23T04:47:47;3.10;96.90
2763;DHT22;1389;51.490;7.338;2023-01-23T04:50:15;3.20;96.90
2763;DHT22;1389;51.490;7.338;2023-01-23T04:52:41;3.20;96.60
2763;DHT22;1389;51.490;7.338;2023-01-23T04:55:07;3.10;96.40
2763;DHT22;1389;51.490;7.338;2023-01-23T04:57:33;3.10;96.50
2763;DHT22;1389;51.490;7.338;2023-01-23T05:02:26;3.10;96.60
2763;DHT22;1389;51.490;7.338;2023-01-23T05:04:52;3.10;96.40
2763;DHT22;1389;51.490;7.338;2023-01-23T05:07:18;3.10;96.30
2763;DHT22;1389;51.490;7.338;2023-01-23T05:09:44;3.10;96.30
2763;DHT22;1389;51.490;7.338;2023-01-23T05:12:10;3.10;96.10
2763;DHT22;1389;51.490;7.338;2023-01-23T05:14:36;3.10;96.20
2763;DHT22;1389;51.490;7.338;2023-01-23T05:17:02;3.10;96.20
2763;DHT22;1389;51.490;7.338;2023-01-23T05:19:28;3.00;96.10
2763;DHT22;1389;51.490;7.338;2023-01-23T05:21:54;3.00;96.30
2763;DHT22;1389;51.490;7.338;2023-01-23T05:24:20;3.00;96.60
2763;DHT22;1389;51.490;7.338;2023-01-23T05:26:47;3.10;96.70
2763;DHT22;1389;51.490;7.338;2023-01-23T05:29:13;3.10;96.50
2763;DHT22;1389;51.490;7.338;2023-01-23T05:31:39;3.10;96.60
2763;DHT22;1389;51.490;7.338;2023-01-23T05:34:05;3.10;96.50
2763;DHT22;1389;51.490;7.338;2023-01-23T05:36:31;3.10;96.40
2763;DHT22;1389;51.490;7.338;2023-01-23T05:38:57;3.10;96.30
2763;DHT22;1389;51.490;7.338;2023-01-23T05:41:23;3.20;96.40
2763;DHT22;1389;51.490;7.338;2023-01-23T05:43:49;3.20;96.30
2763;DHT22;1389;51.490;7.338;2023-01-23T05:46:15;3.10;96.20
2763;DHT22;1389;51.490;7.338;2023-01-23T05:48:41;3.10;96.40
2763;DHT22;1389;51.490;7.338;2023-01-23T05:51:08;3.10;96.40
2763;DHT22;1389;51.490;7.338;2023-01-23T05:53:34;3.20;96.50
2763;DHT22;1389;51.490;7.338;2023-01-23T05:56:05;3.20;96.30
2763;DHT22;1389;51.490;7.338;2023-01-23T05:58:31;3.20;96.30
2763;DHT22;1389;51.490;7.338;2023-01-23T06:00:57;3.20;96.20
2763;DHT22;1389;51.490;7.338;2023-01-23T06:03:23;3.20;96.10
2763;DHT22;1389;51.490;7.338;2023-01-23T06:05:50;3.20;96.00
2763;DHT22;1389;51.490;7.338;2023-01-23T06:08:16;3.20;96.00
2763;DHT22;1389;51.490;7.338;2023-01-23T06:10:42;3.20;95.90
2763;DHT22;1389;51.490;7.338;2023-01-23T06:13:08;3.20;96.00
2763;DHT22;1389;51.490;7.338;2023-01-23T06:15:35;3.20;96.10
2763;DHT22;1389;51.490;7.338;2023-01-23T06:18:01;3.20;96.10
2763;DHT22;1389;51.490;7.338;2023-01-23T06:20:27;3.20;96.00
2763;DHT22;1389;51.490;7.338;2023-01-23T06:22:53;3.20;96.10
2763;DHT22;1389;51.490;7.338;2023-01-23T06:25:19;3.20;96.00
2763;DHT22;1389;51.490;7.338;2023-01-23T06:27:47;3.20;96.10
2763;DHT22;1389;51.490;7.338;2023-01-23T06:30:13;3.20;96.20
2763;DHT22;1389;51.490;7.338;2023-01-23T06:32:40;3.20;96.30
2763;DHT22;1389;51.490;7.338;2023-01-23T06:35:06;3.20;96.30
2763;DHT22;1389;51.490;7.338;2023-01-23T06:37:32;3.20;96.40
2763;DHT22;1389;51.490;7.338;2023-01-23T06:39:58;3.20;96.50
2763;DHT22;1389;51.490;7.338;2023-01-23T06:42:24;3.20;96.60
2763;DHT22;1389;51.490;7.338;2023-01-23T06:44:50;3.20;96.50
2763;DHT22;1389;51.490;7.338;2023-01-23T06:47:16;3.20;96.40
2763;DHT22;1389;51.490;7.338;2023-01-23T06:49:44;3.20;96.50
2763;DHT22;1389;51.490;7.338;2023-01-23T06:52:10;3.20;96.50
2763;DHT22;1389;51.490;7.338;2023-01-23T06:54:37;3.30;96.40
2763;DHT22;1389;51.490;7.338;2023-01-23T06:57:03;3.30;96.60
2763;DHT22;1389;51.490;7.338;2023-01-23T06:59:29;3.30;96.60
2763;DHT22;1389;51.490;7.338;2023-01-23T07:01:55;3.30;96.60
2763;DHT22;1389;51.490;7.338;2023-01-23T07:04:21;3.30;96.40
2763;DHT22;1389;51.490;7.338;2023-01-23T07:06:47;3.30;96.40
2763;DHT22;1389;51.490;7.338;2023-01-23T07:09:13;3.30;96.50
2763;DHT22;1389;51.490;7.338;2023-01-23T07:11:39;3.30;96.50
2763;DHT22;1389;51.490;7.338;2023-01-23T07:14:06;3.30;96.50
2763;DHT22;1389;51.490;7.338;2023-01-23T07:16:32;3.30;96.40
2763;DHT22;1389;51.490;7.338;2023-01-23T07:18:59;3.30;96.10
2763;DHT22;1389;51.490;7.338;2023-01-23T07:21:27;3.30;96.20
2763;DHT22;1389;51.490;7.338;2023-01-23T07:23:53;3.30;96.10
2763;DHT22;1389;51.490;7.338;2023-01-23T07:26:19;3.30;95.70
2763;DHT22;1389;51.490;7.338;2023-01-23T07:28:45;3.30;95.70
2763;DHT22;1389;51.490;7.338;2023-01-23T07:31:11;3.30;96.00
2763;DHT22;1389;51.490;7.338;2023-01-23T07:33:37;3.30;95.90
2763;DHT22;1389;51.490;7.338;2023-01-23T07:36:05;3.30;95.80
2763;DHT22;1389;51.490;7.338;2023-01-23T07:38:32;3.30;95.70
2763;DHT22;1389;51.490;7.338;2023-01-23T07:40:58;3.30;95.60
2763;DHT22;1389;51.490;7.338;2023-01-23T07:43:25;3.30;95.70
2763;DHT22;1389;51.490;7.338;2023-01-23T07:45:51;3.20;95.90
2763;DHT22;1389;51.490;7.338;2023-01-23T07:48:17;3.20;95.90
2763;DHT22;1389;51.490;7.338;2023-01-23T07:50:43;3.20;96.10
2763;DHT22;1389;51.490;7.338;2023-01-23T07:53:09;3.30;96.10
2763;DHT22;1389;51.490;7.338;2023-01-23T07:55:37;3.20;96.00
2763;DHT22;1389;51.490;7.338;2023-01-23T07:58:03;3.20;95.90
2763;DHT22;1389;51.490;7.338;2023-01-23T08:00:29;3.20;95.90
2763;DHT22;1389;51.490;7.338;2023-01-23T08:02:56;3.20;96.00
2763;DHT22;1389;51.490;7.338;2023-01-23T08:05:22;3.30;96.00
2763;DHT22;1389;51.490;7.338;2023-01-23T08:07:48;3.30;96.20
2763;DHT22;1389;51.490;7.338;2023-01-23T08:10:14;3.30;96.30
2763;DHT22;1389;51.490;7.338;2023-01-23T08:12:41;3.30;95.90
2763;DHT22;1389;51.490;7.338;2023-01-23T08:15:07;3.30;95.80
2763;DHT22;1389;51.490;7.338;2023-01-23T08:17:33;3.30;96.00
2763;DHT22;1389;51.490;7.338;2023-01-23T08:19:59;3.30;96.10
2763;DHT22;1389;51.490;7.338;2023-01-23T08:22:25;3.40;96.10
2763;DHT22;1389;51.490;7.338;2023-01-23T08:24:51;3.40;95.80
2763;DHT22;1389;51.490;7.338;2023-01-23T08:27:18;3.40;95.60
2763;DHT22;1389;51.490;7.338;2023-01-23T08:29:44;3.40;95.40
2763;DHT22;1389;51.490;7.338;2023-01-23T08:32:10;3.30;95.50
2763;DHT22;1389;51.490;7.338;2023-01-23T08:34:36;3.30;95.60
2763;DHT22;1389;51.490;7.338;2023-01-23T08:37:02;3.30;95.50
2763;DHT22;1389;51.490;7.338;2023-01-23T08:39:28;3.40;95.50
2763;DHT22;1389;51.490;7.338;2023-01-23T08:41:54;3.40;95.40
2763;DHT22;1389;51.490;7.338;2023-01-23T08:44:20;3.30;95.30
2763;DHT22;1389;51.490;7.338;2023-01-23T08:46:46;3.40;95.20
2763;DHT22;1389;51.490;7.338;2023-01-23T08:49:12;3.40;95.30
2763;DHT22;1389;51.490;7.338;2023-01-23T08:51:38;3.40;95.30
2763;DHT22;1389;51.490;7.338;2023-01-23T08:54:05;3.40;95.30
2763;DHT22;1389;51.490;7.338;2023-01-23T08:56:33;3.40;94.80
2763;DHT22;1389;51.490;7.338;2023-01-23T08:58:59;3.40;94.70
2763;DHT22;1389;51.490;7.338;2023-01-23T09:01:25;3.40;94.30
2763;DHT22;1389;51.490;7.338;2023-01-23T09:03:52;3.40;94.50
2763;DHT22;1389;51.490;7.338;2023-01-23T09:06:20;3.40;94.80
2763;DHT22;1389;51.490;7.338;2023-01-23T09:08:46;3.40;94.90
2763;DHT22;1389;51.490;7.338;2023-01-23T09:11:13;3.40;95.00
2763;DHT22;1389;51.490;7.338;2023-01-23T09:13:39;3.40;94.90
2763;DHT22;1389;51.490;7.338;2023-01-23T09:16:06;3.40;95.00
2763;DHT22;1389;51.490;7.338;2023-01-23T09:18:35;3.50;95.20
2763;DHT22;1389;51.490;7.338;2023-01-23T09:21:06;3.50;94.90
2763;DHT22;1389;51.490;7.338;2023-01-23T09:23:32;3.50;94.90
2763;DHT22;1389;51.490;7.338;2023-01-23T09:26:06;3.50;94.80
2763;DHT22;1389;51.490;7.338;2023-01-23T09:28:37;3.60;94.90
2763;DHT22;1389;51.490;7.338;2023-01-23T09:31:06;3.60;94.70
2763;DHT22;1389;51.490;7.338;2023-01-23T09:33:33;3.60;94.70
2763;DHT22;1389;51.490;7.338;2023-01-23T09:35:59;3.60;94.60
2763;DHT22;1389;51.490;7.338;2023-01-23T09:38:26;3.60;94.60
2763;DHT22;1389;51.490;7.338;2023-01-23T09:40:56;3.70;94.40
2763;DHT22;1389;51.490;7.338;2023-01-23T09:43:46;3.60;94.10
2763;DHT22;1389;51.490;7.338;2023-01-23T09:46:43;3.60;94.00
2763;DHT22;1389;51.490;7.338;2023-01-23T09:49:12;3.70;94.00
2763;DHT22;1389;51.490;7.338;2023-01-23T09:57:01;3.70;93.80
2763;DHT22;1389;51.490;7.338;2023-01-23T09:59:37;3.70;93.90
2763;DHT22;1389;51.490;7.338;2023-01-23T10:02:16;3.70;94.00
2763;DHT22;1389;51.490;7.338;2023-01-23T10:04:55;3.70;93.70
2763;DHT22;1389;51.490;7.338;2023-01-23T10:07:48;3.80;93.50
2763;DHT22;1389;51.490;7.338;2023-01-23T10:10:39;3.80;93.40
2763;DHT22;1389;51.490;7.338;2023-01-23T10:18:23;3.80;93.00
2763;DHT22;1389;51.490;7.338;2023-01-23T10:23:47;3.90;92.50
2763;DHT22;1389;51.490;7.338;2023-01-23T10:26:21;3.90;92.40
2763;DHT22;1389;51.490;7.338;2023-01-23T10:28:52;4.00;92.10
2763;DHT22;1389;51.490;7.338;2023-01-23T10:36:39;4.00;92.00
2763;DHT22;1389;51.490;7.338;2023-01-23T10:39:19;4.00;92.00
2763;DHT22;1389;51.490;7.338;2023-01-23T10:41:47;4.00;91.30
2763;DHT22;1389;51.490;7.338;2023-01-23T10:44:18;4.00;91.50
2763;DHT22;1389;51.490;7.338;2023-01-23T10:46:51;4.00;91.60
2763;DHT22;1389;51.490;7.338;2023-01-23T10:49:46;4.00;91.70
2763;DHT22;1389;51.490;7.338;2023-01-23T10:52:36;4.00;91.70
2763;DHT22;1389;51.490;7.338;2023-01-23T10:57:52;4.00;91.40
2763;DHT22;1389;51.490;7.338;2023-01-23T11:02:54;4.00;90.90
2763;DHT22;1389;51.490;7.338;2023-01-23T11:08:07;3.90;91.20
2763;DHT22;1389;51.490;7.338;2023-01-23T11:10:46;3.90;91.40
2763;DHT22;1389;51.490;7.338;2023-01-23T11:13:25;4.00;91.40
2763;DHT22;1389;51.490;7.338;2023-01-23T11:15:52;4.00;90.90
2763;DHT22;1389;51.490;7.338;2023-01-23T11:18:33;3.90;90.90
2763;DHT22;1389;51.490;7.338;2023-01-23T11:21:01;3.90;91.10
2763;DHT22;1389;51.490;7.338;2023-01-23T11:23:28;3.90;91.30
2763;DHT22;1389;51.490;7.338;2023-01-23T11:25:55;3.90;91.60
2763;DHT22;1389;51.490;7.338;2023-01-23T11:28:31;3.90;91.50
2763;DHT22;1389;51.490;7.338;2023-01-23T11:31:25;4.00;91.30
2763;DHT22;1389;51.490;7.338;2023-01-23T11:37:02;4.00;91.30
2763;DHT22;1389;51.490;7.338;2023-01-23T11:41:58;4.10;91.60
2763;DHT22;1389;51.490;7.338;2023-01-23T11:44:24;4.20;91.40
2763;DHT22;1389;51.490;7.338;2023-01-23T11:58:33;4.20;91.20
2763;DHT22;1389;51.490;7.338;2023-01-23T12:01:33;4.20;91.20
2763;DHT22;1389;51.490;7.338;2023-01-23T12:07:07;4.20;91.30
2763;DHT22;1389;51.490;7.338;2023-01-23T12:21:00;4.30;91.40
2763;DHT22;1389;51.490;7.338;2023-01-23T12:23:50;4.30;91.50
2763;DHT22;1389;51.490;7.338;2023-01-23T12:26:20;4.30;91.20
2763;DHT22;1389;51.490;7.338;2023-01-23T12:29:26;4.30;91.20
2763;DHT22;1389;51.490;7.338;2023-01-23T12:34:52;4.30;91.20
2763;DHT22;1389;51.490;7.338;2023-01-23T12:38:07;4.20;90.70
2763;DHT22;1389;51.490;7.338;2023-01-23T12:46:09;4.20;91.70
2763;DHT22;1389;51.490;7.338;2023-01-23T12:51:38;4.30;91.20
2763;DHT22;1389;51.490;7.338;2023-01-23T12:54:13;4.30;91.40
2763;DHT22;1389;51.490;7.338;2023-01-23T12:56:42;4.30;91.60
2763;DHT22;1389;51.490;7.338;2023-01-23T13:02:20;4.30;91.70
2763;DHT22;1389;51.490;7.338;2023-01-23T13:07:48;4.30;91.00
2763;DHT22;1389;51.490;7.338;2023-01-23T13:12:55;4.30;90.90
2763;DHT22;1389;51.490;7.338;2023-01-23T13:15:30;4.30;91.00
2763;DHT22;1389;51.490;7.338;2023-01-23T13:20:28;4.30;91.10
2763;DHT22;1389;51.490;7.338;2023-01-23T13:25:49;4.30;91.20
2763;DHT22;1389;51.490;7.338;2023-01-23T13:33:48;4.30;90.80
2763;DHT22;1389;51.490;7.338;2023-01-23T13:36:23;4.30;90.90
2763;DHT22;1389;51.490;7.338;2023-01-23T13:41:32;4.30;91.10
2763;DHT22;1389;51.490;7.338;2023-01-23T13:52:21;4.30;91.10
2763;DHT22;1389;51.490;7.338;2023-01-23T13:55:33;4.30;91.30
2763;DHT22;1389;51.490;7.338;2023-01-23T13:58:25;4.30;91.10
2763;DHT22;1389;51.490;7.338;2023-01-23T14:01:03;4.30;90.80
2763;DHT22;1389;51.490;7.338;2023-01-23T14:03:51;4.30;90.70
2763;DHT22;1389;51.490;7.338;2023-01-23T14:06:39;4.30;90.80
2763;DHT22;1389;51.490;7.338;2023-01-23T14:09:25;4.30;90.80
2763;DHT22;1389;51.490;7.338;2023-01-23T14:12:02;4.30;90.60
2763;DHT22;1389;51.490;7.338;2023-01-23T14:14:34;4.30;90.70
2763;DHT22;1389;51.490;7.338;2023-01-23T14:17:20;4.30;90.50
2763;DHT22;1389;51.490;7.338;2023-01-23T14:19:59;4.30;90.40
2763;DHT22;1389;51.490;7.338;2023-01-23T14:22:29;4.30;90.50
2763;DHT22;1389;51.490;7.338;2023-01-23T14:24:55;4.30;90.50
2763;DHT22;1389;51.490;7.338;2023-01-23T14:27:37;4.30;90.20
2763;DHT22;1389;51.490;7.338;2023-01-23T14:30:13;4.30;90.30
2763;DHT22;1389;51.490;7.338;2023-01-23T14:32:39;4.30;90.40
2763;DHT22;1389;51.490;7.338;2023-01-23T14:35:26;4.30;90.50
2763;DHT22;1389;51.490;7.338;2023-01-23T14:37:54;4.30;90.40
2763;DHT22;1389;51.490;7.338;2023-01-23T14:40:22;4.30;90.10
2763;DHT22;1389;51.490;7.338;2023-01-23T14:42:59;4.30;90.10
2763;DHT22;1389;51.490;7.338;2023-01-23T14:45:33;4.30;90.40
2763;DHT22;1389;51.490;7.338;2023-01-23T14:48:01;4.30;90.80
2763;DHT22;1389;51.490;7.338;2023-01-23T14:50:29;4.30;90.40
2763;DHT22;1389;51.490;7.338;2023-01-23T14:52:56;4.30;90.50
2763;DHT22;1389;51.490;7.338;2023-01-23T14:55:25;4.30;90.70
2763;DHT22;1389;51.490;7.338;2023-01-23T14:57:54;4.40;90.40
2763;DHT22;1389;51.490;7.338;2023-01-23T15:00:22;4.30;90.00
2763;DHT22;1389;51.490;7.338;2023-01-23T15:02:48;4.30;89.70
2763;DHT22;1389;51.490;7.338;2023-01-23T15:05:18;4.30;89.90
2763;DHT22;1389;51.490;7.338;2023-01-23T15:07:59;4.30;89.20
2763;DHT22;1389;51.490;7.338;2023-01-23T15:13:26;4.20;89.70
2763;DHT22;1389;51.490;7.338;2023-01-23T15:15:56;4.20;89.90
2763;DHT22;1389;51.490;7.338;2023-01-23T15:18:23;4.20;90.20
2763;DHT22;1389;51.490;7.338;2023-01-23T15:21:07;4.20;90.20
2763;DHT22;1389;51.490;7.338;2023-01-23T15:23:34;4.20;90.40
2763;DHT22;1389;51.490;7.338;2023-01-23T15:31:29;4.30;90.60
2763;DHT22;1389;51.490;7.338;2023-01-23T15:36:36;4.30;90.70
2763;DHT22;1389;51.490;7.338;2023-01-23T15:39:02;4.30;90.20
2763;DHT22;1389;51.490;7.338;2023-01-23T15:41:41;4.30;90.00
2763;DHT22;1389;51.490;7.338;2023-01-23T15:44:16;4.30;90.10
2763;DHT22;1389;51.490;7.338;2023-01-23T15:46:42;4.30;89.90
2763;DHT22;1389;51.490;7.338;2023-01-23T15:49:08;4.20;90.10
2763;DHT22;1389;51.490;7.338;2023-01-23T15:51:35;4.20;89.90
2763;DHT22;1389;51.490;7.338;2023-01-23T15:54:03;4.20;89.80
2763;DHT22;1389;51.490;7.338;2023-01-23T15:56:32;4.10;89.40
2763;DHT22;1389;51.490;7.338;2023-01-23T15:58:58;4.10;89.30
2763;DHT22;1389;51.490;7.338;2023-01-23T16:01:28;4.10;89.50
2763;DHT22;1389;51.490;7.338;2023-01-23T16:03:54;4.10;89.90
2763;DHT22;1389;51.490;7.338;2023-01-23T16:06:22;4.10;90.20
2763;DHT22;1389;51.490;7.338;2023-01-23T16:08:50;4.10;90.20
2763;DHT22;1389;51.490;7.338;2023-01-23T16:11:17;4.10;90.30
2763;DHT22;1389;51.490;7.338;2023-01-23T16:13:44;4.10;90.50
2763;DHT22;1389;51.490;7.338;2023-01-23T16:16:14;4.10;90.60
2763;DHT22;1389;51.490;7.338;2023-01-23T16:18:40;4.10;90.70
2763;DHT22;1389;51.490;7.338;2023-01-23T16:21:12;4.10;90.70
2763;DHT22;1389;51.490;7.338;2023-01-23T16:23:38;4.20;90.10
2763;DHT22;1389;51.490;7.338;2023-01-23T16:26:04;4.10;90.00
2763;DHT22;1389;51.490;7.338;2023-01-23T16:28:31;4.10;90.20
2763;DHT22;1389;51.490;7.338;2023-01-23T16:30:57;4.10;90.30
2763;DHT22;1389;51.490;7.338;2023-01-23T16:33:24;4.10;90.00
2763;DHT22;1389;51.490;7.338;2023-01-23T16:35:50;4.10;89.80
2763;DHT22;1389;51.490;7.338;2023-01-23T16:38:25;4.10;90.00
2763;DHT22;1389;51.490;7.338;2023-01-23T16:40:53;4.10;90.00
2763;DHT22;1389;51.490;7.338;2023-01-23T16:43:20;4.10;89.20
2763;DHT22;1389;51.490;7.338;2023-01-23T16:45:47;4.10;89.60
2763;DHT22;1389;51.490;7.338;2023-01-23T16:48:13;4.10;89.30
2763;DHT22;1389;51.490;7.338;2023-01-23T16:50:42;4.10;89.40
2763;DHT22;1389;51.490;7.338;2023-01-23T16:53:20;4.00;89.50
2763;DHT22;1389;51.490;7.338;2023-01-23T16:55:48;4.00;89.40
2763;DHT22;1389;51.490;7.338;2023-01-23T16:58:22;4.10;89.50
2763;DHT22;1389;51.490;7.338;2023-01-23T17:00:50;4.00;89.60
2763;DHT22;1389;51.490;7.338;2023-01-23T17:03:22;4.00;89.70
2763;DHT22;1389;51.490;7.338;2023-01-23T17:05:49;4.00;90.00
2763;DHT22;1389;51.490;7.338;2023-01-23T17:08:20;4.10;89.30
2763;DHT22;1389;51.490;7.338;2023-01-23T17:10:50;4.10;89.20
2763;DHT22;1389;51.490;7.338;2023-01-23T17:13:18;4.00;88.90
2763;DHT22;1389;51.490;7.338;2023-01-23T17:15:47;4.00;88.70
2763;DHT22;1389;51.490;7.338;2023-01-23T17:20:47;4.00;88.80
2763;DHT22;1389;51.490;7.338;2023-01-23T17:23:14;4.00;89.30
2763;DHT22;1389;51.490;7.338;2023-01-23T17:25:40;4.00;89.00
2763;DHT22;1389;51.490;7.338;2023-01-23T17:28:17;4.00;89.20
2763;DHT22;1389;51.490;7.338;2023-01-23T17:30:45;4.00;89.10
2763;DHT22;1389;51.490;7.338;2023-01-23T17:33:17;4.00;89.00
2763;DHT22;1389;51.490;7.338;2023-01-23T17:35:44;3.90;88.80
2763;DHT22;1389;51.490;7.338;2023-01-23T17:38:22;4.00;88.80
2763;DHT22;1389;51.490;7.338;2023-01-23T17:40:50;4.00;89.00
2763;DHT22;1389;51.490;7.338;2023-01-23T17:43:17;4.00;89.30
2763;DHT22;1389;51.490;7.338;2023-01-23T17:45:46;3.90;88.90
2763;DHT22;1389;51.490;7.338;2023-01-23T17:48:31;4.00;89.10
2763;DHT22;1389;51.490;7.338;2023-01-23T17:51:01;4.00;89.20
2763;DHT22;1389;51.490;7.338;2023-01-23T17:53:27;4.00;89.40
2763;DHT22;1389;51.490;7.338;2023-01-23T17:55:55;4.00;89.60
2763;DHT22;1389;51.490;7.338;2023-01-23T17:58:21;4.00;89.30
2763;DHT22;1389;51.490;7.338;2023-01-23T18:00:49;4.00;89.40
2763;DHT22;1389;51.490;7.338;2023-01-23T18:03:20;4.00;89.40
2763;DHT22;1389;51.490;7.338;2023-01-23T18:05:47;4.00;89.40
2763;DHT22;1389;51.490;7.338;2023-01-23T18:08:15;4.00;89.70
2763;DHT22;1389;51.490;7.338;2023-01-23T18:10:46;4.00;89.60
2763;DHT22;1389;51.490;7.338;2023-01-23T18:18:36;4.00;89.60
2763;DHT22;1389;51.490;7.338;2023-01-23T18:21:06;4.00;89.60
2763;DHT22;1389;51.490;7.338;2023-01-23T18:23:32;4.00;89.30
2763;DHT22;1389;51.490;7.338;2023-01-23T18:28:42;4.00;89.40
2763;DHT22;1389;51.490;7.338;2023-01-23T18:31:30;4.00;89.30
2763;DHT22;1389;51.490;7.338;2023-01-23T18:34:05;4.00;89.20
2763;DHT22;1389;51.490;7.338;2023-01-23T18:45:10;4.00;89.40
2763;DHT22;1389;51.490;7.338;2023-01-23T18:47:36;4.00;89.30
2763;DHT22;1389;51.490;7.338;2023-01-23T18:50:04;4.00;89.30
2763;DHT22;1389;51.490;7.338;2023-01-23T18:52:49;4.00;89.40
2763;DHT22;1389;51.490;7.338;2023-01-23T19:03:43;4.00;89.60
2763;DHT22;1389;51.490;7.338;2023-01-23T19:06:18;4.00;89.40
2763;DHT22;1389;51.490;7.338;2023-01-23T19:08:45;4.00;89.30